Time;durP1;ratioP1;P1;durP2;ratioP2;P2;SDS_P1;SDS_P2;PMS_P1;PMS_P2;Temp;Humidity;BMP_temperature;BMP_pressure;BME280_temperature;BME280_humidity;BME280_pressure;Samples;Min_cycle;Max_cycle;Signal;HPM_P1;HPM_P2
2023/05/01 00:00:40;;;;;;;;;;;;;;;21.03;43.07;101843.84;5130011;27;20010;-73
2023/05/01 00:03:05;;;;;;;;;;;;;;;21.02;43.38;101830.47;5136254;27;19912;-72
2023/05/01 00:05:30;;;;;;;;;;;;;;;21.00;43.03;101829.81;5133262;27;20257;-73
2023/05/01 00:07:56;;;;;;;;;;;;;;;21.00;43.08;101832.50;5138895;27;19934;-73
2023/05/01 00:10:21;;;;;;;;;;;;;;;20.98;43.33;101827.22;5134064;27;19983;-73
2023/05/01 00:12:46;;;;;;;;;;;;;;;20.97;43.24;101826.38;5141758;27;19977;-73
2023/05/01 00:15:11;;;;;;;;;;;;;;;20.96;43.05;101838.22;5136211;27;19919;-73
2023/05/01 00:17:36;;;;;;;;;;;;;;;20.95;43.33;101816.75;5133302;27;19939;-73
2023/05/01 00:20:03;;;;;;;;;;;;;;;20.95;43.36;101822.16;5136163;27;19916;-73
2023/05/01 00:22:29;;;;;;;;;;;;;;;20.93;43.13;101811.50;5115119;27;19919;-73
2023/05/01 00:24:54;;;;;;;;;;;;;;;20.93;43.02;101816.06;5134508;27;19946;-73
2023/05/01 00:27:19;;;;;;;;;;;;;;;20.91;43.06;101813.53;5132596;27;19962;-73
2023/05/01 00:29:45;;;;;;;;;;;;;;;20.90;43.28;101806.44;5135855;27;19916;-73
2023/05/01 00:32:10;;;;;;;;;;;;;;;20.90;43.22;101805.59;5132925;27;19921;-73
2023/05/01 00:34:35;;;;;;;;;;;;;;;20.88;43.00;101803.03;5135918;27;19916;-73
2023/05/01 00:37:01;;;;;;;;;;;;;;;20.87;43.17;101797.78;5135116;27;19957;-73
2023/05/01 00:39:26;;;;;;;;;;;;;;;20.87;42.95;101797.78;5108247;27;19954;-73
2023/05/01 00:41:51;;;;;;;;;;;;;;;20.86;43.12;101796.09;5139309;27;20015;-73
2023/05/01 00:44:17;;;;;;;;;;;;;;;20.85;43.24;101789.81;5134206;27;20014;-73
2023/05/01 00:46:42;;;;;;;;;;;;;;;20.84;43.18;101790.00;5136642;27;19934;-73
2023/05/01 00:49:08;;;;;;;;;;;;;;;20.83;43.29;101785.59;5133135;27;19951;-73
2023/05/01 00:51:33;;;;;;;;;;;;;;;20.82;43.23;101790.16;5130316;27;20057;-73
2023/05/01 00:53:58;;;;;;;;;;;;;;;20.81;43.21;101782.19;5117171;27;20352;-73
2023/05/01 00:56:25;;;;;;;;;;;;;;;20.79;43.31;101778.81;5133738;27;19912;-73
2023/05/01 00:58:52;;;;;;;;;;;;;;;20.78;42.92;101772.56;5135587;27;20020;-73
2023/05/01 01:01:20;;;;;;;;;;;;;;;20.78;43.13;101767.16;5134587;27;19911;-72
2023/05/01 01:03:46;;;;;;;;;;;;;;;20.77;43.17;101770.00;5134761;27;19918;-72
2023/05/01 01:06:14;;;;;;;;;;;;;;;20.76;42.98;101762.91;5132609;27;20017;-71
2023/05/01 01:08:53;;;;;;;;;;;;;;;20.76;43.11;101761.06;5120236;27;19953;-73
2023/05/01 01:11:40;;;;;;;;;;;;;;;20.74;43.17;101754.97;5125758;28;19912;-73
2023/05/01 01:14:18;;;;;;;;;;;;;;;20.72;43.22;101748.88;5117314;28;20407;-73
2023/05/01 01:16:52;;;;;;;;;;;;;;;20.71;43.09;101745.31;5114653;28;19927;-73
2023/05/01 01:19:21;;;;;;;;;;;;;;;20.70;43.23;101734.69;5111094;28;19994;-73
2023/05/01 01:21:47;;;;;;;;;;;;;;;20.69;43.26;101741.94;5114384;28;19923;-73
2023/05/01 01:24:32;;;;;;;;;;;;;;;20.69;43.19;101741.09;5113812;28;19927;-73
2023/05/01 01:27:01;;;;;;;;;;;;;;;20.68;43.20;101728.59;5112005;28;19975;-73
2023/05/01 01:29:29;;;;;;;;;;;;;;;20.66;43.15;101734.16;5114379;28;19931;-73
2023/05/01 01:32:09;;;;;;;;;;;;;;;20.65;43.22;101727.06;5119028;28;19920;-73
2023/05/01 01:34:35;;;;;;;;;;;;;;;20.63;43.03;101729.06;5116761;28;19916;-73
2023/05/01 01:37:04;;;;;;;;;;;;;;;20.64;42.87;101727.19;5114995;28;19916;-73
2023/05/01 01:39:34;;;;;;;;;;;;;;;20.62;43.23;101721.13;5116109;27;19920;-73
2023/05/01 01:42:00;;;;;;;;;;;;;;;20.61;43.21;101723.00;5118748;28;19952;-73
2023/05/01 01:44:28;;;;;;;;;;;;;;;20.60;43.18;101715.91;5103445;28;19923;-73
2023/05/01 01:46:53;;;;;;;;;;;;;;;20.60;43.18;101713.19;5111655;28;19923;-73
2023/05/01 01:49:19;;;;;;;;;;;;;;;20.59;43.03;101705.22;5112273;27;19926;-73
2023/05/01 01:51:45;;;;;;;;;;;;;;;20.58;43.08;101708.94;5116263;28;19919;-72
2023/05/01 01:54:10;;;;;;;;;;;;;;;20.57;43.00;101704.56;5110552;28;19912;-73
2023/05/01 01:56:36;;;;;;;;;;;;;;;20.57;42.91;101701.84;5111110;28;19911;-73
2023/05/01 01:59:01;;;;;;;;;;;;;;;20.55;43.02;101702.00;5110004;28;19918;-73
2023/05/01 02:01:27;;;;;;;;;;;;;;;20.54;42.84;101703.00;5114733;28;19920;-73
2023/05/01 02:03:52;;;;;;;;;;;;;;;20.54;43.18;101689.50;5113821;28;19912;-73
2023/05/01 02:06:17;;;;;;;;;;;;;;;20.53;43.21;101690.53;5109418;28;19933;-73
2023/05/01 02:08:43;;;;;;;;;;;;;;;20.52;42.98;101682.56;5116491;28;19916;-73
2023/05/01 02:11:08;;;;;;;;;;;;;;;20.52;43.23;101685.25;5110143;28;19919;-74
2023/05/01 02:13:33;;;;;;;;;;;;;;;20.51;43.28;101681.72;5110988;28;19912;-74
2023/05/01 02:15:59;;;;;;;;;;;;;;;20.50;43.22;101679.19;5132551;27;20325;-73
2023/05/01 02:18:25;;;;;;;;;;;;;;;20.49;43.00;101681.03;5127331;27;19916;-73
2023/05/01 02:20:50;;;;;;;;;;;;;;;20.47;43.15;101670.38;5112975;27;19916;-73
2023/05/01 02:23:15;;;;;;;;;;;;;;;20.47;43.00;101667.66;5131493;27;19941;-73
2023/05/01 02:25:41;;;;;;;;;;;;;;;20.47;43.18;101672.19;5133871;27;19916;-73
2023/05/01 02:28:15;;;;;;;;;;;;;;;20.46;42.93;101670.50;5111767;28;19947;-73
2023/05/01 02:30:40;;;;;;;;;;;;;;;20.45;43.24;101661.56;5119103;27;19916;-73
2023/05/01 02:33:06;;;;;;;;;;;;;;;20.44;43.18;101648.22;5129397;27;19926;-73
2023/05/01 02:35:31;;;;;;;;;;;;;;;20.43;43.12;101649.22;5139252;27;19912;-72
2023/05/01 02:37:56;;;;;;;;;;;;;;;20.43;43.20;101649.22;5123944;27;20006;-73
2023/05/01 02:40:21;;;;;;;;;;;;;;;20.41;43.24;101646.69;5130444;27;19912;-73
2023/05/01 02:42:47;;;;;;;;;;;;;;;20.41;42.97;101640.44;5125893;27;20767;-73
2023/05/01 02:45:19;;;;;;;;;;;;;;;20.40;42.87;101636.06;5131001;27;19916;-72
2023/05/01 02:47:45;;;;;;;;;;;;;;;20.39;43.08;101632.50;5113224;27;19912;-72
2023/05/01 02:50:10;;;;;;;;;;;;;;;20.38;42.97;101632.66;5132281;27;19946;-73
2023/05/01 02:52:35;;;;;;;;;;;;;;;20.38;42.97;101627.25;5133749;27;20417;-73
2023/05/01 02:55:01;;;;;;;;;;;;;;;20.38;43.14;101624.53;5111930;27;19964;-73
2023/05/01 02:57:26;;;;;;;;;;;;;;;20.36;43.13;101621.19;5132499;27;19919;-73
2023/05/01 02:59:51;;;;;;;;;;;;;;;20.34;43.11;101605.13;5112524;28;19957;-73
2023/05/01 03:02:16;;;;;;;;;;;;;;;20.35;43.13;101620.34;5135802;27;19984;-73
2023/05/01 03:04:42;;;;;;;;;;;;;;;20.33;43.17;101614.22;5135132;27;19918;-72
2023/05/01 03:07:08;;;;;;;;;;;;;;;20.32;43.18;101604.44;5130589;27;19974;-73
2023/05/01 03:09:33;;;;;;;;;;;;;;;20.32;42.83;101614.41;5134857;27;20018;-74
2023/05/01 03:11:58;;;;;;;;;;;;;;;20.30;43.17;101601.03;5128503;27;19947;-73
2023/05/01 03:14:24;;;;;;;;;;;;;;;20.29;42.83;101602.06;5129795;27;19916;-73
2023/05/01 03:16:49;;;;;;;;;;;;;;;20.28;42.85;101597.66;5131355;27;20336;-73
2023/05/01 03:19:14;;;;;;;;;;;;;;;20.28;43.03;101594.97;5131511;27;19922;-73
2023/05/01 03:21:39;;;;;;;;;;;;;;;20.27;43.07;101590.59;5130101;27;19911;-73
2023/05/01 03:24:05;;;;;;;;;;;;;;;20.26;42.89;101585.31;5131470;27;19912;-73
2023/05/01 03:26:31;;;;;;;;;;;;;;;20.25;43.02;101583.63;5131416;27;19919;-74
2023/05/01 03:28:57;;;;;;;;;;;;;;;20.23;42.91;101583.81;5131479;27;19942;-73
2023/05/01 03:31:22;;;;;;;;;;;;;;;20.22;42.91;101582.97;5137270;27;20303;-73
2023/05/01 03:33:47;;;;;;;;;;;;;;;20.21;43.07;101573.16;5128921;28;19912;-73
2023/05/01 03:36:12;;;;;;;;;;;;;;;20.21;42.87;101573.16;5140738;27;19919;-72
2023/05/01 03:38:38;;;;;;;;;;;;;;;20.19;43.19;101575.19;5138975;27;19950;-73
2023/05/01 03:41:04;;;;;;;;;;;;;;;20.20;43.17;101578.72;5130427;27;19986;-73
2023/05/01 03:43:29;;;;;;;;;;;;;;;20.18;42.93;101570.78;5140470;27;19915;-74
2023/05/01 03:45:54;;;;;;;;;;;;;;;20.18;43.03;101575.34;5136935;27;19971;-72
2023/05/01 03:48:20;;;;;;;;;;;;;;;20.16;43.17;101567.41;5133576;27;19951;-72
2023/05/01 03:50:45;;;;;;;;;;;;;;;20.15;43.12;101573.81;5140063;27;19920;-73
2023/05/01 03:53:11;;;;;;;;;;;;;;;20.15;43.17;101572.97;5138744;27;19912;-73
2023/05/01 03:55:37;;;;;;;;;;;;;;;20.14;42.95;101571.28;5140552;27;19923;-73
2023/05/01 03:58:02;;;;;;;;;;;;;;;20.13;42.89;101572.25;5142304;27;20371;-73
2023/05/01 04:00:27;;;;;;;;;;;;;;;20.13;42.93;101569.56;5137658;27;19912;-73
2023/05/01 04:02:52;;;;;;;;;;;;;;;20.11;42.92;101564.34;5131431;27;19954;-73
2023/05/01 04:05:17;;;;;;;;;;;;;;;20.10;42.85;101559.94;5139578;27;19933;-73
2023/05/01 04:07:43;;;;;;;;;;;;;;;20.10;42.81;101568.06;5136636;27;19966;-72
2023/05/01 04:10:08;;;;;;;;;;;;;;;20.09;43.07;101560.09;5140905;27;19955;-73
2023/05/01 04:12:34;;;;;;;;;;;;;;;20.08;43.06;101561.94;5136125;27;19933;-74
2023/05/01 04:14:59;;;;;;;;;;;;;;;20.08;42.82;101559.25;5134994;27;19915;-73
2023/05/01 04:17:24;;;;;;;;;;;;;;;20.07;43.13;101556.72;5136192;27;19937;-74
2023/05/01 04:19:49;;;;;;;;;;;;;;;20.06;42.85;101550.47;5139278;27;19912;-73
2023/05/01 04:22:15;;;;;;;;;;;;;;;20.05;42.94;101556.91;5135029;27;20361;-72
2023/05/01 04:24:40;;;;;;;;;;;;;;;20.05;42.80;101558.72;5140335;27;19998;-73
2023/05/01 04:27:07;;;;;;;;;;;;;;;20.04;42.77;101554.34;5137619;27;20383;-72
2023/05/01 04:29:33;;;;;;;;;;;;;;;20.04;42.75;101548.94;5139249;27;19911;-74
2023/05/01 04:31:58;;;;;;;;;;;;;;;20.03;42.98;101553.50;5141412;27;19922;-72
2023/05/01 04:34:23;;;;;;;;;;;;;;;20.03;43.24;101541.84;5136581;27;19919;-73
2023/05/01 04:36:50;;;;;;;;;;;;;;;20.02;43.45;101538.31;5136113;27;20376;-74
2023/05/01 04:39:15;;;;;;;;;;;;;;;20.02;43.42;101543.72;5139097;27;19912;-74
2023/05/01 04:41:40;;;;;;;;;;;;;;;20.02;43.81;101540.16;5136396;27;19950;-75
2023/05/01 04:44:05;;;;;;;;;;;;;;;20.03;43.96;101539.16;5136978;27;19920;-74
2023/05/01 04:46:31;;;;;;;;;;;;;;;20.03;43.86;101547.25;5135810;27;20272;-74
2023/05/01 04:48:56;;;;;;;;;;;;;;;20.03;43.81;101541.84;5130374;27;19915;-73
2023/05/01 04:51:21;;;;;;;;;;;;;;;20.03;44.10;101550.78;5138829;27;19943;-74
2023/05/01 04:53:46;;;;;;;;;;;;;;;20.03;44.12;101541.84;5137403;27;19915;-75
2023/05/01 04:56:11;;;;;;;;;;;;;;;20.03;43.94;101539.16;5131349;27;19950;-74
2023/05/01 04:58:37;;;;;;;;;;;;;;;20.03;44.03;101536.44;5141747;27;19916;-76
2023/05/01 05:01:02;;;;;;;;;;;;;;;20.03;44.18;101539.16;5131574;27;19915;-70
2023/05/01 05:03:27;;;;;;;;;;;;;;;20.03;44.32;101536.44;5134194;27;19937;-71
2023/05/01 05:05:52;;;;;;;;;;;;;;;20.03;44.13;101534.59;5131647;27;19940;-71
2023/05/01 05:08:17;;;;;;;;;;;;;;;20.03;44.38;101541.84;5133051;27;19961;-70
2023/05/01 05:10:42;;;;;;;;;;;;;;;20.03;44.10;101537.28;5132379;27;19922;-73
2023/05/01 05:13:08;;;;;;;;;;;;;;;20.01;43.93;101533.94;5136177;27;19920;-74
2023/05/01 05:15:34;;;;;;;;;;;;;;;20.03;44.29;101545.41;5131517;27;20382;-74
2023/05/01 05:17:59;;;;;;;;;;;;;;;20.04;44.09;101551.63;5132474;27;19983;-73
2023/05/01 05:20:24;;;;;;;;;;;;;;;20.03;44.18;101552.66;5137177;27;19912;-73
2023/05/01 05:22:50;;;;;;;;;;;;;;;20.03;44.10;101555.34;5130263;27;19947;-73
2023/05/01 05:25:15;;;;;;;;;;;;;;;20.03;44.04;101549.94;5140169;27;19911;-73
2023/05/01 05:27:40;;;;;;;;;;;;;;;20.02;44.22;101543.72;5135537;27;19978;-74
2023/05/01 05:30:06;;;;;;;;;;;;;;;20.02;44.28;101549.09;5132353;27;19915;-73
2023/05/01 05:32:31;;;;;;;;;;;;;;;20.01;44.18;101547.41;5137139;27;20387;-73
2023/05/01 05:34:57;;;;;;;;;;;;;;;20.01;44.33;101543.84;5113367;27;19916;-72
2023/05/01 05:37:24;;;;;;;;;;;;;;;20.01;44.17;101543.84;5132511;27;19962;-74
2023/05/01 05:39:49;;;;;;;;;;;;;;;20.01;44.11;101542.03;5112244;28;19919;-73
2023/05/01 05:42:14;;;;;;;;;;;;;;;20.02;44.09;101546.41;5133331;27;19916;-74
2023/05/01 05:44:40;;;;;;;;;;;;;;;20.01;44.22;101542.03;5131114;27;20349;-74
2023/05/01 05:47:05;;;;;;;;;;;;;;;20.00;44.21;101537.59;5133667;27;19916;-73
2023/05/01 05:49:30;;;;;;;;;;;;;;;20.02;44.42;101549.09;5131607;27;20384;-73
2023/05/01 05:51:55;;;;;;;;;;;;;;;20.00;44.36;101534.91;5136657;27;19944;-73
2023/05/01 05:54:21;;;;;;;;;;;;;;;20.00;44.13;101536.75;5136460;27;19919;-74
2023/05/01 05:56:46;;;;;;;;;;;;;;;20.01;44.08;101533.06;5131831;27;19915;-74
2023/05/01 05:59:11;;;;;;;;;;;;;;;20.00;44.30;101529.50;5136323;27;20017;-74
2023/05/01 06:01:36;;;;;;;;;;;;;;;20.00;44.43;101529.50;5130061;27;19916;-73
2023/05/01 06:04:01;;;;;;;;;;;;;;;20.01;44.11;101530.34;5133889;27;19912;-70
2023/05/01 06:06:27;;;;;;;;;;;;;;;20.01;44.09;101525.81;5131560;27;19923;-71
2023/05/01 06:08:52;;;;;;;;;;;;;;;20.03;44.15;101531.06;5131776;27;20349;-72
2023/05/01 06:11:17;;;;;;;;;;;;;;;20.01;44.01;101536.63;5131623;27;19912;-72
2023/05/01 06:13:42;;;;;;;;;;;;;;;20.02;44.04;101527.50;5118490;27;19977;-70
2023/05/01 06:16:07;;;;;;;;;;;;;;;20.00;44.23;101524.09;5131566;27;19919;-72
2023/05/01 06:18:33;;;;;;;;;;;;;;;20.01;44.23;101523.13;5111288;27;19998;-73
2023/05/01 06:20:58;;;;;;;;;;;;;;;20.01;44.28;101520.44;5135412;27;19937;-76
2023/05/01 06:23:24;;;;;;;;;;;;;;;20.00;44.31;101516.00;5130192;27;20058;-74
2023/05/01 06:25:50;;;;;;;;;;;;;;;20.01;44.32;101516.84;5126474;27;19937;-74
2023/05/01 06:28:15;;;;;;;;;;;;;;;20.02;44.11;101515.88;5131650;27;20052;-74
2023/05/01 06:30:40;;;;;;;;;;;;;;;20.01;43.88;101511.47;5124451;27;19919;-74
2023/05/01 06:33:05;;;;;;;;;;;;;;;20.00;43.94;101509.78;5136028;27;20187;-74
2023/05/01 06:35:31;;;;;;;;;;;;;;;20.00;43.91;101510.63;5129686;27;20472;-74
2023/05/01 06:37:56;;;;;;;;;;;;;;;20.00;44.11;101516.00;5130180;27;19916;-74
2023/05/01 06:40:21;;;;;;;;;;;;;;;20.00;43.95;101512.47;5129200;27;20265;-73
2023/05/01 06:42:46;;;;;;;;;;;;;;;20.00;43.83;101523.28;5133600;27;19915;-74
2023/05/01 06:45:11;;;;;;;;;;;;;;;19.98;43.80;101518.03;5130439;27;19928;-74
2023/05/01 06:47:37;;;;;;;;;;;;;;;19.99;43.82;101522.44;5135058;27;19924;-74
2023/05/01 06:50:03;;;;;;;;;;;;;;;19.98;43.74;101523.44;5135866;27;19911;-74
2023/05/01 06:52:28;;;;;;;;;;;;;;;19.98;43.83;101515.34;5138945;27;19918;-74
2023/05/01 06:54:53;;;;;;;;;;;;;;;19.97;43.56;101527.16;5115578;28;19915;-74
2023/05/01 06:57:18;;;;;;;;;;;;;;;19.96;43.70;101518.22;5130429;27;19915;-74
2023/05/01 06:59:44;;;;;;;;;;;;;;;19.96;43.55;101514.63;5132472;27;20368;-73
2023/05/01 07:02:09;;;;;;;;;;;;;;;19.95;43.63;101511.09;5128827;27;19927;-72
2023/05/01 07:04:34;;;;;;;;;;;;;;;19.95;43.43;101508.41;5129428;28;19933;-74
2023/05/01 07:07:01;;;;;;;;;;;;;;;19.95;43.54;101516.50;5131349;27;19916;-73
2023/05/01 07:09:26;;;;;;;;;;;;;;;19.95;43.42;101512.97;5131508;27;19911;-74
2023/05/01 07:11:51;;;;;;;;;;;;;;;19.95;43.25;101512.97;5129958;27;19941;-74
2023/05/01 07:14:17;;;;;;;;;;;;;;;19.94;43.46;101514.81;5129490;27;19923;-75
2023/05/01 07:16:42;;;;;;;;;;;;;;;19.95;43.14;101512.97;5124239;28;19915;-74
2023/05/01 07:19:07;;;;;;;;;;;;;;;19.95;43.32;101512.97;5136022;27;19919;-73
2023/05/01 07:21:32;;;;;;;;;;;;;;;19.95;43.04;101513.81;5136694;27;19950;-74
2023/05/01 07:23:57;;;;;;;;;;;;;;;19.95;43.39;101513.81;5131803;27;20459;-74
2023/05/01 07:26:26;;;;;;;;;;;;;;;19.96;43.11;101506.53;5133246;27;19922;-74
2023/05/01 07:28:51;;;;;;;;;;;;;;;19.96;43.35;101518.22;5129705;27;19916;-74
2023/05/01 07:31:16;;;;;;;;;;;;;;;19.95;43.08;101513.81;5129611;27;19991;-74
2023/05/01 07:33:41;;;;;;;;;;;;;;;19.96;43.13;101514.63;5130468;28;20578;-74
2023/05/01 07:36:07;;;;;;;;;;;;;;;19.96;43.12;101511.94;5124674;28;19928;-74
2023/05/01 07:38:32;;;;;;;;;;;;;;;19.97;43.23;101513.66;5116564;28;19938;-73
2023/05/01 07:40:57;;;;;;;;;;;;;;;19.97;42.97;101510.97;5130624;28;19938;-74
2023/05/01 07:43:22;;;;;;;;;;;;;;;19.98;42.94;101501.84;5133780;28;20296;-74
2023/05/01 07:45:56;;;;;;;;;;;;;;;19.98;42.91;101507.25;5129776;28;19964;-74
2023/05/01 07:48:21;;;;;;;;;;;;;;;19.99;43.17;101503.53;5137124;28;19923;-74
2023/05/01 07:50:46;;;;;;;;;;;;;;;19.99;42.91;101500.84;5111211;28;19949;-74
2023/05/01 07:53:11;;;;;;;;;;;;;;;20.00;43.09;101501.69;5135426;28;19911;-74
2023/05/01 07:55:37;;;;;;;;;;;;;;;20.00;42.99;101498.97;5132132;28;19920;-74
2023/05/01 07:58:02;;;;;;;;;;;;;;;20.00;42.96;101496.28;5129477;28;20287;-75
2023/05/01 08:00:27;;;;;;;;;;;;;;;20.01;42.86;101495.25;5116535;28;19912;-74
2023/05/01 08:02:53;;;;;;;;;;;;;;;20.02;42.82;101495.13;5129321;28;19940;-74
2023/05/01 08:05:18;;;;;;;;;;;;;;;20.03;42.88;101494.09;5127739;28;20002;-74
2023/05/01 08:07:43;;;;;;;;;;;;;;;20.04;42.83;101503.03;5129198;28;19916;-74
2023/05/01 08:10:09;;;;;;;;;;;;;;;20.04;42.91;101503.88;5130816;28;19916;-76
2023/05/01 08:12:34;;;;;;;;;;;;;;;20.04;43.02;101517.38;5129991;28;19971;-74
2023/05/01 08:15:00;;;;;;;;;;;;;;;20.05;42.96;101499.34;5110029;28;19925;-71
2023/05/01 08:17:25;;;;;;;;;;;;;;;20.05;42.97;101500.22;5131632;28;19912;-76
2023/05/01 08:19:52;;;;;;;;;;;;;;;20.07;43.20;101497.34;5112988;28;19929;-73
2023/05/01 08:22:17;;;;;;;;;;;;;;;20.07;43.42;101492.78;5135958;27;19963;-72
2023/05/01 08:24:42;;;;;;;;;;;;;;;20.08;43.29;101490.91;5133288;27;19937;-71
2023/05/01 08:27:08;;;;;;;;;;;;;;;20.09;43.25;101495.31;5133287;27;19977;-71
2023/05/01 08:29:33;;;;;;;;;;;;;;;20.09;43.42;101493.47;5131503;27;19912;-73
2023/05/01 08:31:59;;;;;;;;;;;;;;;20.10;43.44;101497.03;5133861;27;19955;-72
2023/05/01 08:34:24;;;;;;;;;;;;;;;20.11;43.78;101490.59;5132914;27;19915;-71
2023/05/01 08:36:49;;;;;;;;;;;;;;;20.11;43.74;101496.84;5135219;27;20372;-71
2023/05/01 08:39:14;;;;;;;;;;;;;;;20.11;43.75;101493.31;5136088;27;19911;-73
2023/05/01 08:41:39;;;;;;;;;;;;;;;20.12;44.07;101492.28;5136499;27;19919;-72
2023/05/01 08:44:05;;;;;;;;;;;;;;;20.11;44.07;101494.16;5118987;27;20265;-74
2023/05/01 08:46:33;;;;;;;;;;;;;;;20.11;44.05;101494.16;5133513;27;20368;-73
2023/05/01 08:48:58;;;;;;;;;;;;;;;20.10;44.09;101489.75;5125282;27;19979;-74
2023/05/01 08:51:24;;;;;;;;;;;;;;;20.10;44.47;101487.06;5124848;27;19937;-74
2023/05/01 08:53:50;;;;;;;;;;;;;;;20.11;44.25;101483.34;5117122;27;19916;-74
2023/05/01 08:56:16;;;;;;;;;;;;;;;20.10;44.19;101489.75;5120946;27;19911;-74
2023/05/01 08:58:44;;;;;;;;;;;;;;;20.12;44.49;101495.00;5115524;27;19915;-73
2023/05/01 09:01:11;;;;;;;;;;;;;;;20.11;44.30;101496.84;5114710;27;19979;-74
2023/05/01 09:03:36;;;;;;;;;;;;;;;20.12;44.32;101492.28;5135461;27;19916;-73
2023/05/01 09:06:02;;;;;;;;;;;;;;;20.12;44.02;101489.59;5112172;28;19998;-74
2023/05/01 09:08:27;;;;;;;;;;;;;;;20.12;44.01;101486.88;5134626;27;19919;-74
2023/05/01 09:10:52;;;;;;;;;;;;;;;20.13;44.27;101496.66;5119082;28;20006;-74
2023/05/01 09:13:17;;;;;;;;;;;;;;;20.13;43.91;101496.66;5133810;27;20346;-74
2023/05/01 09:15:43;;;;;;;;;;;;;;;20.13;44.16;101494.81;5114596;28;19920;-72
2023/05/01 09:18:08;;;;;;;;;;;;;;;20.13;43.82;101489.41;5117255;28;19947;-75
2023/05/01 09:20:36;;;;;;;;;;;;;;;20.14;43.90;101490.28;5110712;28;19919;-73
2023/05/01 09:23:01;;;;;;;;;;;;;;;20.14;43.71;101485.72;5112601;28;19919;-74
2023/05/01 09:25:26;;;;;;;;;;;;;;;20.14;44.02;101488.44;5110493;28;19962;-74
2023/05/01 09:27:51;;;;;;;;;;;;;;;20.15;43.72;101484.72;5113483;28;19923;-74
2023/05/01 09:30:28;;;;;;;;;;;;;;;20.14;43.73;101472.22;5110847;28;19923;-74
2023/05/01 09:33:09;;;;;;;;;;;;;;;20.16;43.87;101482.84;5112924;28;19916;-75
2023/05/01 09:35:48;;;;;;;;;;;;;;;20.15;44.06;101482.00;5111167;28;19915;-75
2023/05/01 09:38:16;;;;;;;;;;;;;;;20.15;43.85;101482.00;5122729;27;19964;-74
2023/05/01 09:40:41;;;;;;;;;;;;;;;20.16;44.04;101482.84;5110343;28;19987;-74
2023/05/01 09:43:06;;;;;;;;;;;;;;;20.16;43.70;101475.59;5122658;28;19916;-75
2023/05/01 09:45:31;;;;;;;;;;;;;;;20.17;44.07;101477.28;5122751;28;19920;-74
2023/05/01 09:48:08;;;;;;;;;;;;;;;20.18;44.17;101475.44;5112469;28;19988;-75
2023/05/01 09:50:34;;;;;;;;;;;;;;;20.19;44.23;101474.44;5112401;28;19980;-73
2023/05/01 09:52:59;;;;;;;;;;;;;;;20.20;44.28;101468.03;5113412;28;19912;-75
2023/05/01 09:55:25;;;;;;;;;;;;;;;20.20;44.63;101474.25;5111340;28;20003;-74
2023/05/01 09:57:50;;;;;;;;;;;;;;;20.22;44.52;101471.41;5112818;28;19947;-75
2023/05/01 10:00:15;;;;;;;;;;;;;;;20.23;44.57;101481.19;5109230;28;19960;-75
2023/05/01 10:02:42;;;;;;;;;;;;;;;20.23;44.72;101467.69;5111577;28;19916;-76
2023/05/01 10:05:08;;;;;;;;;;;;;;;20.24;44.74;101472.09;5113078;28;19916;-75
2023/05/01 10:07:33;;;;;;;;;;;;;;;20.26;44.81;101475.44;5110579;28;19924;-76
2023/05/01 10:10:13;;;;;;;;;;;;;;;20.28;44.66;101467.22;5116945;28;19973;-75
2023/05/01 10:12:39;;;;;;;;;;;;;;;20.30;44.79;101468.72;5111483;28;19916;-76
2023/05/01 10:15:04;;;;;;;;;;;;;;;20.30;44.68;101459.78;5123801;27;20292;-74
2023/05/01 10:17:30;;;;;;;;;;;;;;;20.31;44.76;101462.34;5132695;27;19915;-74
2023/05/01 10:19:55;;;;;;;;;;;;;;;20.34;44.39;101461.13;5112778;27;20008;-75
2023/05/01 10:22:20;;;;;;;;;;;;;;;20.36;44.46;101465.38;5135281;27;19916;-76
2023/05/01 10:24:46;;;;;;;;;;;;;;;20.38;44.69;101459.81;5131225;27;19912;-74
2023/05/01 10:27:11;;;;;;;;;;;;;;;20.40;44.34;101461.34;5130921;27;19923;-76
2023/05/01 10:29:36;;;;;;;;;;;;;;;20.42;44.53;101458.47;5114025;27;19920;-72
2023/05/01 10:32:03;;;;;;;;;;;;;;;20.42;44.32;101461.16;5115788;27;19915;-72
2023/05/01 10:34:28;;;;;;;;;;;;;;;20.43;44.25;101460.16;5124339;27;20006;-72
2023/05/01 10:36:58;;;;;;;;;;;;;;;20.44;44.15;101449.19;5124959;27;19916;-72
2023/05/01 10:39:31;;;;;;;;;;;;;;;20.46;44.21;101462.53;5117337;27;19912;-72
2023/05/01 10:42:10;;;;;;;;;;;;;;;20.46;44.17;101452.56;5127426;27;19912;-73
2023/05/01 10:44:36;;;;;;;;;;;;;;;20.46;44.22;101457.97;5137990;27;19919;-71
2023/05/01 10:47:19;;;;;;;;;;;;;;;20.46;44.46;101466.06;5130329;27;19916;-71
2023/05/01 10:50:03;;;;;;;;;;;;;;;20.46;44.21;101471.47;5137636;27;19911;-72
2023/05/01 10:52:29;;;;;;;;;;;;;;;20.47;44.31;101467.78;5132952;27;19916;-73
2023/05/01 10:55:10;;;;;;;;;;;;;;;20.48;44.32;101474.06;5128886;27;19934;-70
2023/05/01 10:57:43;;;;;;;;;;;;;;;20.47;44.32;101467.78;5124164;27;19912;-72
2023/05/01 11:00:08;;;;;;;;;;;;;;;20.48;44.17;101468.66;5114173;27;19922;-72
2023/05/01 11:02:33;;;;;;;;;;;;;;;20.49;44.22;101474.91;5130293;27;19916;-70
2023/05/01 11:04:58;;;;;;;;;;;;;;;20.49;44.25;101466.78;5136111;27;20284;-71
2023/05/01 11:07:24;;;;;;;;;;;;;;;20.48;44.30;101468.66;5131865;27;19923;-73
2023/05/01 11:09:54;;;;;;;;;;;;;;;20.48;44.43;101463.25;5135516;27;19911;-75
2023/05/01 11:12:38;;;;;;;;;;;;;;;20.50;44.57;101463.06;5115453;27;19943;-75
2023/05/01 11:15:04;;;;;;;;;;;;;;;20.50;44.37;101457.66;5131655;27;19924;-74
2023/05/01 11:17:38;;;;;;;;;;;;;;;20.50;44.32;101463.06;5129115;27;19975;-73
2023/05/01 11:20:04;;;;;;;;;;;;;;;20.26;44.23;101434.94;5128723;27;19911;-74
2023/05/01 11:22:30;;;;;;;;;;;;;;;20.50;44.31;101469.31;5130624;27;19911;-75
2023/05/01 11:24:55;;;;;;;;;;;;;;;20.51;44.40;101459.34;5133636;27;19911;-74
2023/05/01 11:27:20;;;;;;;;;;;;;;;20.52;44.50;101466.44;5127820;28;19926;-75
2023/05/01 11:29:45;;;;;;;;;;;;;;;20.52;44.49;101455.63;5115678;28;19916;-74
2023/05/01 11:32:14;;;;;;;;;;;;;;;20.52;44.67;101461.03;5109737;28;20072;-74
2023/05/01 11:34:39;;;;;;;;;;;;;;;20.53;44.49;101474.41;5112602;28;19987;-75
2023/05/01 11:37:04;;;;;;;;;;;;;;;20.54;44.68;101461.72;5123645;28;19916;-75
2023/05/01 11:39:30;;;;;;;;;;;;;;;20.55;44.64;101455.31;5115011;28;19951;-76
2023/05/01 11:42:07;;;;;;;;;;;;;;;20.57;44.34;101456.00;5131705;28;19919;-75
2023/05/01 11:44:32;;;;;;;;;;;;;;;20.59;44.57;101465.63;5129358;28;19959;-75
2023/05/01 11:47:00;;;;;;;;;;;;;;;20.61;44.67;101460.06;5129840;28;19949;-74
2023/05/01 11:49:25;;;;;;;;;;;;;;;20.62;44.41;101464.44;5127659;27;19927;-75
2023/05/01 11:51:55;;;;;;;;;;;;;;;20.62;44.39;101459.03;5130164;28;19916;-75
2023/05/01 11:54:20;;;;;;;;;;;;;;;20.63;44.42;101460.72;5132459;28;19912;-75
2023/05/01 11:56:46;;;;;;;;;;;;;;;20.64;44.30;101459.72;5133259;27;19915;-75
2023/05/01 11:59:11;;;;;;;;;;;;;;;20.65;44.64;101458.72;5137326;27;19919;-74
2023/05/01 12:01:39;;;;;;;;;;;;;;;20.65;44.26;101454.16;5133914;27;19915;-74
2023/05/01 12:04:06;;;;;;;;;;;;;;;20.66;44.61;101463.09;5139610;27;19919;-73
2023/05/01 12:06:39;;;;;;;;;;;;;;;20.68;44.37;101453.81;5119462;27;19916;-73
2023/05/01 12:09:04;;;;;;;;;;;;;;;20.69;44.63;101457.38;5133828;27;19912;-74
2023/05/01 12:11:29;;;;;;;;;;;;;;;20.70;44.70;101462.59;5120388;27;19919;-75
2023/05/01 12:13:55;;;;;;;;;;;;;;;20.72;44.48;101462.44;5132161;27;19924;-74
2023/05/01 12:16:20;;;;;;;;;;;;;;;20.73;44.55;101461.44;5118033;28;20003;-75
2023/05/01 12:18:45;;;;;;;;;;;;;;;20.75;44.48;101467.50;5118742;28;19915;-76
2023/05/01 12:21:14;;;;;;;;;;;;;;;20.75;44.68;101472.91;5120994;27;19919;-75
2023/05/01 12:23:40;;;;;;;;;;;;;;;20.76;44.74;101469.19;5116302;28;19919;-75
2023/05/01 12:26:15;;;;;;;;;;;;;;;20.76;44.93;101468.34;5135388;27;19915;-75
2023/05/01 12:28:51;;;;;;;;;;;;;;;20.77;44.97;101470.88;5115670;27;20010;-75
2023/05/01 12:31:16;;;;;;;;;;;;;;;20.77;44.65;101468.16;5119777;27;19915;-73